createdAt,value
2023-04-26T00:03:14.745Z,17.72
2023-04-26T00:08:19.909Z,17.68
2023-04-26T00:13:21.881Z,17.63
2023-04-26T00:18:23.828Z,17.61
2023-04-26T00:23:26.276Z,17.57
2023-04-26T00:28:31.741Z,17.55
2023-04-26T00:33:33.902Z,17.54
2023-04-26T00:38:36.112Z,17.51
2023-04-26T00:43:38.514Z,17.48
2023-04-26T00:48:41.268Z,17.46
2023-04-26T00:53:43.568Z,17.42
2023-04-26T00:58:46.396Z,17.40
2023-04-26T01:05:18.262Z,17.36
2023-04-26T01:10:21.445Z,17.36
2023-04-26T01:15:24.732Z,17.33
2023-04-26T01:20:27.127Z,17.33
2023-04-26T01:25:30.150Z,17.30
2023-04-26T01:30:32.334Z,17.34
2023-04-26T01:35:38.231Z,17.31
2023-04-26T01:40:43.729Z,17.28
2023-04-26T01:45:48.604Z,17.23
2023-04-26T01:51:05.634Z,17.22
2023-04-26T01:56:08.851Z,17.23
2023-04-26T02:01:12.700Z,17.24
2023-04-26T02:06:17.148Z,17.23
2023-04-26T02:11:19.613Z,17.26
2023-04-26T02:16:23.027Z,17.26
2023-04-26T02:21:58.000Z,17.27
2023-04-26T02:27:06.222Z,17.26
2023-04-26T02:32:10.455Z,17.24
2023-04-26T02:37:12.213Z,17.18
2023-04-26T02:42:14.206Z,17.16
2023-04-26T02:47:16.927Z,17.15
2023-04-26T02:52:19.017Z,17.10
2023-04-26T02:57:20.873Z,17.05
2023-04-26T03:02:23.317Z,17.02
2023-04-26T03:07:25.902Z,17.00
2023-04-26T03:12:28.474Z,17.00
2023-04-26T03:17:30.808Z,16.97
2023-04-26T03:22:34.410Z,16.96
2023-04-26T03:27:36.558Z,16.95
2023-04-26T03:32:40.959Z,16.94
2023-04-26T03:37:43.551Z,16.94
2023-04-26T03:42:48.187Z,16.93
2023-04-26T03:47:51.078Z,16.91
2023-04-26T03:52:54.070Z,16.89
2023-04-26T03:57:56.081Z,16.90
2023-04-26T04:08:22.702Z,16.82
2023-04-26T04:13:25.002Z,16.80
2023-04-26T04:18:27.461Z,16.78
2023-04-26T04:23:29.512Z,16.75
2023-04-26T04:28:32.707Z,16.67
2023-04-26T04:33:34.951Z,16.66
2023-04-26T04:38:37.398Z,16.64
2023-04-26T04:43:40.831Z,16.62
2023-04-26T04:48:44.515Z,16.60
2023-04-26T04:53:46.853Z,16.60
2023-04-26T04:58:49.229Z,16.58
2023-04-26T05:03:57.838Z,16.58
2023-04-26T05:09:01.715Z,16.57
2023-04-26T05:14:07.189Z,16.58
2023-04-26T05:19:09.787Z,16.61
2023-04-26T05:24:12.802Z,16.62
2023-04-26T05:29:15.763Z,16.66
2023-04-26T05:34:50.232Z,16.69
2023-04-26T05:39:52.528Z,16.74
2023-04-26T05:44:59.027Z,16.79
2023-04-26T05:50:02.466Z,16.83
2023-04-26T05:55:06.021Z,16.88
2023-04-26T06:00:09.979Z,16.94
2023-04-26T06:05:20.120Z,17.02
2023-04-26T06:10:23.080Z,17.10
2023-04-26T06:15:25.485Z,17.18
2023-04-26T06:20:27.900Z,17.24
2023-04-26T06:25:29.952Z,17.28
2023-04-26T06:30:32.867Z,17.36
2023-04-26T06:35:43.057Z,17.43
2023-04-26T06:40:46.797Z,17.54
2023-04-26T06:45:49.708Z,17.69
2023-04-26T06:50:54.599Z,17.97
2023-04-26T06:55:58.185Z,18.26
2023-04-26T07:01:00.231Z,18.61
2023-04-26T07:06:02.484Z,18.97
2023-04-26T07:11:10.441Z,19.25
2023-04-26T07:16:12.722Z,19.48
2023-04-26T07:21:15.406Z,19.62
2023-04-26T07:26:17.603Z,19.79
2023-04-26T07:31:20.664Z,19.92
2023-04-26T07:36:24.559Z,20.03
2023-04-26T07:41:27.184Z,20.12
2023-04-26T07:46:29.340Z,20.27
2023-04-26T07:51:32.048Z,20.49
2023-04-26T07:56:34.555Z,20.66
2023-04-26T08:01:37.336Z,20.85
2023-04-26T08:06:39.468Z,20.95
2023-04-26T08:11:42.217Z,20.92
2023-04-26T08:16:44.683Z,21.11
2023-04-26T08:21:46.816Z,21.17
2023-04-26T08:26:49.077Z,21.11
2023-04-26T08:31:51.128Z,21.20
2023-04-26T08:36:53.702Z,21.29
2023-04-26T08:42:00.050Z,21.20
2023-04-26T08:47:38.610Z,21.27
2023-04-26T08:52:42.295Z,21.19
2023-04-26T08:57:47.652Z,21.22
2023-04-26T09:02:52.150Z,21.09
2023-04-26T09:08:02.293Z,21.16
2023-04-26T09:13:04.398Z,21.35
2023-04-26T09:18:23.644Z,21.48
2023-04-26T09:23:25.770Z,21.35
2023-04-26T09:28:27.746Z,21.35
2023-04-26T09:33:29.911Z,20.91
2023-04-26T09:38:42.716Z,20.64
2023-04-26T09:43:44.871Z,20.34
2023-04-26T09:49:00.941Z,20.20
2023-04-26T10:24:45.465Z,20.03
2023-04-26T10:30:10.235Z,19.90
2023-04-26T10:35:13.869Z,19.87
2023-04-26T10:40:25.872Z,20.03
2023-04-26T10:45:30.307Z,20.15
2023-04-26T10:50:32.664Z,20.32
2023-04-26T10:55:46.790Z,20.41
2023-04-26T11:01:05.160Z,20.47
2023-04-26T11:06:50.918Z,20.58
2023-04-26T11:12:33.888Z,20.56
2023-04-26T11:35:57.938Z,20.79
2023-04-26T11:51:52.469Z,20.29
2023-04-26T11:56:54.900Z,20.22
2023-04-26T12:07:07.108Z,20.16
2023-04-26T12:12:09.262Z,20.13
2023-04-26T12:17:15.246Z,19.85
2023-04-26T12:22:22.158Z,19.65
2023-04-26T12:27:24.596Z,19.39
2023-04-26T12:32:27.113Z,19.44
2023-04-26T12:37:32.004Z,19.42
2023-04-26T12:42:34.109Z,19.51
2023-04-26T12:47:36.364Z,19.41
2023-04-26T12:52:41.694Z,19.56
2023-04-26T12:57:45.183Z,19.82
2023-04-26T13:02:47.605Z,19.96
2023-04-26T13:07:49.866Z,20.06
2023-04-26T13:12:53.929Z,20.24
2023-04-26T13:17:58.902Z,20.29
2023-04-26T13:23:00.927Z,20.12
2023-04-26T13:28:03.493Z,19.96
2023-04-26T13:33:05.649Z,19.79
2023-04-26T13:38:07.756Z,19.71
2023-04-26T13:43:09.909Z,19.69
2023-04-26T13:48:11.893Z,19.65
2023-04-26T13:53:14.026Z,19.60
2023-04-26T13:58:16.421Z,19.75
2023-04-26T14:03:25.632Z,19.87
2023-04-26T14:08:27.791Z,19.96
2023-04-26T14:13:32.462Z,19.89
2023-04-26T14:18:34.938Z,19.75
2023-04-26T14:23:37.260Z,19.67
2023-04-26T14:28:41.173Z,19.67
2023-04-26T14:33:43.306Z,19.53
2023-04-26T14:38:45.876Z,19.54
2023-04-26T14:43:47.994Z,19.54
2023-04-26T14:48:49.961Z,19.62
2023-04-26T14:53:52.352Z,19.66
2023-04-26T14:58:54.509Z,19.65
2023-04-26T15:03:59.925Z,19.54
2023-04-26T15:09:02.781Z,19.33
2023-04-26T15:14:04.677Z,19.19
2023-04-26T15:19:08.762Z,19.12
2023-04-26T15:24:11.404Z,19.20
2023-04-26T15:29:13.688Z,19.32
2023-04-26T15:34:19.095Z,19.39
2023-04-26T15:39:21.088Z,19.43
2023-04-26T15:44:23.151Z,19.48
2023-04-26T15:49:27.902Z,19.49
2023-04-26T15:54:29.913Z,19.51
2023-04-26T15:59:32.673Z,19.44
2023-04-26T16:04:34.823Z,19.32
2023-04-26T16:09:37.369Z,19.30
2023-04-26T16:14:39.298Z,19.34
2023-04-26T16:19:41.428Z,19.42
2023-04-26T16:24:43.626Z,19.39
2023-04-26T16:29:47.563Z,19.42
2023-04-26T16:34:49.819Z,19.44
2023-04-26T16:39:55.948Z,19.39
2023-04-26T16:44:58.080Z,19.39
2023-04-26T16:50:00.339Z,19.36
2023-04-26T16:55:03.051Z,19.34
2023-04-26T17:00:08.099Z,19.19
2023-04-26T17:05:10.972Z,19.04
2023-04-26T17:10:13.067Z,18.92
2023-04-26T17:15:18.124Z,18.87
2023-04-26T17:20:20.079Z,18.83
2023-04-26T17:25:23.614Z,18.82
2023-04-26T17:30:25.871Z,18.86
2023-04-26T17:35:27.950Z,18.88
2023-04-26T17:40:29.981Z,18.92
2023-04-26T17:45:32.259Z,18.91
2023-04-26T17:50:34.482Z,18.87
2023-04-26T17:55:36.554Z,18.84
2023-04-26T18:00:38.605Z,18.84
2023-04-26T18:05:40.782Z,18.82
2023-04-26T18:10:48.609Z,18.75
2023-04-26T18:15:51.518Z,18.66
2023-04-26T18:20:53.484Z,18.56
2023-04-26T18:25:56.057Z,18.49
2023-04-26T18:30:59.015Z,18.44
2023-04-26T18:36:01.048Z,18.45
2023-04-26T18:41:03.557Z,18.35
2023-04-26T18:46:14.749Z,18.30
2023-04-26T18:51:16.917Z,18.29
2023-04-26T18:56:18.953Z,18.23
2023-04-26T19:01:21.513Z,18.21
2023-04-26T19:06:23.552Z,18.20
2023-04-26T19:11:25.522Z,18.15
2023-04-26T19:16:27.797Z,18.12
2023-04-26T19:21:30.058Z,18.17
2023-04-26T19:26:36.720Z,18.20
2023-04-26T19:31:38.825Z,18.24
2023-04-26T19:36:42.081Z,18.21
2023-04-26T19:41:45.235Z,18.19
2023-04-26T19:46:47.510Z,18.23
2023-04-26T19:51:49.474Z,18.29
2023-04-26T19:56:52.068Z,18.35
2023-04-26T20:01:54.349Z,18.38
2023-04-26T20:06:57.338Z,18.42
2023-04-26T20:12:00.242Z,18.44
2023-04-26T20:17:02.657Z,18.46
2023-04-26T20:22:04.848Z,18.45
2023-04-26T20:27:06.998Z,18.44
2023-04-26T20:32:09.058Z,18.35
2023-04-26T20:37:11.032Z,18.37
2023-04-26T20:42:13.147Z,18.38
2023-04-26T20:47:15.568Z,18.39
2023-04-26T20:52:17.637Z,18.37
2023-04-26T22:45:01.426Z,18.67
2023-04-26T22:50:04.607Z,18.53
2023-04-26T22:55:10.082Z,18.39
2023-04-26T23:00:15.231Z,18.32
2023-04-26T23:05:17.631Z,18.25
2023-04-26T23:10:19.785Z,18.17
2023-04-26T23:15:22.092Z,18.11
2023-04-26T23:20:24.226Z,18.08
2023-04-26T23:25:26.792Z,18.01
2023-04-26T23:30:29.057Z,17.98
2023-04-26T23:35:31.394Z,17.93
2023-04-26T23:40:33.632Z,17.90
2023-04-26T23:45:36.017Z,17.87
2023-04-26T23:50:39.161Z,17.84
2023-04-26T23:55:41.527Z,17.80
